Weather at Charles M. Schulz Sonoma County Airport

Public forecast

Using degrees Fahrenheit for public forecast. Weather courtesy of forecast.io.

Current aviation weather report (METAR) for Charles M. Schulz Sonoma County Airport

Retrieved 2020/12/05 00:53 UTC (40 minutes ago):

KSTS 050053Z 24003KT 10SM CLR 16/02 A3019 RMK AO2 SLP217 T01610022

Aviation forecast (TAF) for Charles M. Schulz Sonoma County Airport

Retrieved 2020-12-05 00:42 UTC (51 minutes ago):

TAF KSTS 042339Z 0500/0524 VRB04KT P6SM SKC FM051100 00000KT 4SM BR SKC FM051600 00000KT P6SM FEW200 FM052000 VRB03KT P6SM SCT150